Latest Weather Observations for Warruwi

IDD60801

Issued at 5:31 pm CST Friday 29 May 2015 (issued every 30 minutes, with the page automatically refreshed every 10 minutes)

About weather observations | Map of weather stations | Latest weather observations for NT | Other Formats
Station Details ID: 014401 Name: WARRUWI AIRPORT Lat: -11.65 Lon: 133.38 Height: 19.2 m
Data from the previous 72 hours. | See also: Recent months at Warruwi
Date/Time
CST
Temp
°C
App
Temp
°C
Dew
Point
Rel
Hum
%
Delta-T
°C
Wind Press
QNH
hPa
Press
MSL
hPa
Rain
since 9 am
mm
Dir
 
Spd
km/h
Gust
km/h
Spd
kts
Gust
kts
29/05:30pm 27.3 30.7 23.3 79 2.7 E 11 17 6 9 1012.3 1012.1 0.0
29/05:00pm 27.6 30.5 23.2 77 3.0 E 13 17 7 9 1011.9 1011.7 0.0
29/04:30pm 28.0 30.3 22.7 73 3.6 ESE 15 20 8 11 1011.2 1011.0 0.0
29/04:00pm 27.8 30.1 22.7 74 3.5 ESE 15 20 8 11 1010.6 1010.4 0.0
29/03:30pm 27.5 29.8 22.7 75 3.3 ESE 15 20 8 11 1010.7 1010.5 0.0
29/03:00pm 27.8 28.9 22.3 72 3.7 ESE 20 28 11 15 1011.2 1011.0 0.0
29/02:30pm 28.0 28.8 22.5 72 3.7 ESE 22 35 12 19 1011.9 1011.7 0.0
29/02:00pm 27.6 29.3 23.0 76 3.1 ESE 19 24 10 13 1012.5 1012.3 0.0
29/01:30pm 26.5 27.6 23.0 81 2.4 E 22 30 12 16 1013.1 1012.9 0.0
29/01:00pm 28.0 29.1 22.0 70 4.0 ESE 19 30 10 16 1013.4 1013.2 0.0
29/12:30pm 28.4 29.2 21.4 66 4.7 ESE 19 28 10 15 1013.7 1013.5 0.0
29/12:00pm 29.3 30.3 21.8 64 5.0 ESE 19 24 10 13 1014.2 1014.0 0.0
29/11:30am 29.0 29.8 21.7 64 4.9 ESE 20 30 11 16 1014.5 1014.3 0.0
29/11:00am 28.0 29.2 21.5 67 4.3 ESE 17 26 9 14 1014.8 1014.6 0.0
29/10:30am 27.3 27.7 20.9 68 4.2 ESE 20 33 11 18 1015.1 1014.9 0.0
29/10:00am 27.7 27.9 21.3 68 4.3 ESE 22 32 12 17 1015.0 1014.8 0.0
29/09:30am 27.5 29.0 21.3 69 4.1 SE 15 22 8 12 1014.5 1014.3 0.0
29/09:00am 26.7 28.5 21.2 72 3.6 SE 13 22 7 12 1014.5 1014.3 0.0
29/08:30am 26.8 28.2 21.1 71 3.8 SE 15 22 8 12 1014.4 1014.2 0.0
29/08:00am 26.5 28.9 21.5 74 3.3 SE 11 20 6 11 1014.0 1013.8 0.0
29/07:30am 26.1 28.0 21.3 75 3.2 SSE 13 20 7 11 1013.4 1013.2 0.0
29/07:00am 25.9 28.3 21.6 77 2.9 SE 11 17 6 9 1013.1 1012.9 0.0
29/06:30am 25.5 28.6 21.4 78 2.7 SSE 7 13 4 7 1012.7 1012.5 0.0
29/06:00am 25.8 28.6 21.5 77 2.9 SSE 9 13 5 7 1012.4 1012.2 0.0
29/05:30am 25.8 27.8 21.5 77 2.9 SSE 13 20 7 11 1012.1 1011.9 0.0
29/05:00am 25.8 27.4 21.5 77 2.9 SE 15 22 8 12 1012.1 1011.9 0.0
29/04:30am 25.7 27.3 21.4 77 2.9 SE 15 24 8 13 1012.2 1012.0 0.0
29/04:00am 25.7 27.0 21.6 78 2.7 SE 17 24 9 13 1012.1 1011.9 0.0
29/03:30am 25.6 26.7 21.3 77 2.8 SE 17 24 9 13 1012.3 1012.1 0.0
29/03:00am 25.7 26.9 21.4 77 2.9 SE 17 22 9 12 1012.4 1012.2 0.0
29/02:30am 26.0 27.1 21.2 75 3.2 SE 17 28 9 15 1012.4 1012.2 0.0
29/02:00am 26.2 27.0 21.4 75 3.2 ESE 19 26 10 14 1012.6 1012.4 0.0
29/01:30am 26.6 27.2 21.4 73 3.5 ESE 20 32 11 17 1012.9 1012.7 0.0
29/01:00am 26.7 27.5 21.7 74 3.3 ESE 20 30 11 16 1013.3 1013.1 0.0
29/12:30am 27.0 27.7 22.2 75 3.2 ESE 22 33 12 18 1013.5 1013.3 0.0
29/12:00am 26.6 30.3 23.9 85 1.9 SE 11 17 6 9 1013.6 1013.4 0.0
 
Date/Time
CST
Temp
°C
App
Temp
°C
Dew
Point
Rel
Hum
%
Delta-T
°C
Wind Press
QNH
hPa
Press
MSL
hPa
Rain
since 9 am
mm
Dir
 
Spd
km/h
Gust
km/h
Spd
kts
Gust
kts
28/11:30pm 26.1 30.5 24.5 91 1.1 ESE 9 13 5 7 1013.7 1013.5 0.0
28/11:00pm 24.9 30.2 23.1 90 1.2 CALM 0 2 0 1 1013.5 1013.3 0.0
28/10:30pm 24.9 30.2 23.0 89 1.3 CALM 0 0 0 0 1013.5 1013.3 0.0
28/10:00pm 25.0 29.9 23.1 89 1.3 ENE 2 2 1 1 1013.5 1013.3 0.0
28/09:30pm 25.4 30.1 23.3 88 1.4 ENE 4 4 2 2 1013.3 1013.1 0.0
28/09:00pm 25.7 30.6 23.6 88 1.4 NE 4 6 2 3 1013.3 1013.1 0.0
28/08:30pm 25.8 30.5 23.3 86 1.7 ENE 4 6 2 3 1013.0 1012.8 0.0
28/08:00pm 25.9 30.5 23.2 85 1.8 ENE 4 7 2 4 1012.7 1012.5 0.0
28/07:30pm 25.9 30.2 22.6 82 2.2 ENE 4 6 2 3 1012.4 1012.2 0.0
28/07:00pm 26.4 30.3 22.5 79 2.6 ENE 6 7 3 4 1012.2 1012.0 0.0
28/06:30pm 26.7 30.6 21.9 75 3.2 ENE 4 6 2 3 1011.9 1011.7 0.0
28/06:00pm 27.7 31.1 21.7 70 4.0 ENE 6 7 3 4 1011.6 1011.4 0.0
28/05:30pm 28.6 31.9 21.9 67 4.5 ENE 7 13 4 7 1011.5 1011.3 0.0
28/05:00pm 29.0 32.0 22.0 66 4.7 ENE 9 17 5 9 1011.5 1011.3 0.0
28/04:30pm 28.9 31.3 22.2 67 4.5 ENE 13 19 7 10 1011.6 1011.4 0.0
28/04:00pm 29.5 32.1 22.7 67 4.6 ENE 13 19 7 10 1011.7 1011.5 0.0
28/03:30pm 29.9 31.8 22.1 63 5.3 E 15 22 8 12 1011.6 1011.4 0.0
28/03:00pm 29.5 31.6 22.5 66 4.8 ENE 15 20 8 11 1011.7 1011.5 0.0
28/02:30pm 29.4 31.6 21.9 64 5.1 E 13 20 7 11 1011.9 1011.7 0.0
28/02:00pm 28.6 30.4 21.9 67 4.5 E 15 20 8 11 1012.5 1012.3 0.0
28/01:30pm 27.5 28.9 21.8 71 3.8 E 17 22 9 12 1013.0 1012.8 0.0
28/01:00pm 28.4 29.5 21.9 68 4.4 E 19 24 10 13 1013.5 1013.3 0.0
28/12:30pm 28.4 29.5 21.9 68 4.4 E 19 24 10 13 1013.9 1013.7 0.0
28/12:00pm 28.0 29.0 21.8 69 4.2 E 19 28 10 15 1014.1 1013.9 0.0
28/11:30am 27.6 28.1 21.2 68 4.3 E 20 28 11 15 1014.6 1014.4 0.0
28/11:00am 26.9 27.6 21.6 72 3.5 E 20 28 11 15 1014.9 1014.7 0.0
28/10:30am 26.7 28.0 21.7 74 3.3 E 17 24 9 13 1015.0 1014.8 0.0
28/10:00am 26.8 28.0 22.2 76 3.1 E 19 24 10 13 1015.2 1015.0 0.0
28/09:30am 26.4 26.9 22.0 77 2.9 E 22 28 12 15 1015.1 1014.9 0.0
28/09:00am 25.7 26.0 21.6 78 2.7 E 22 32 12 17 1015.0 1014.8 0.0
28/08:30am 25.4 25.8 21.7 80 2.5 E 22 32 12 17 1014.6 1014.4 0.0
28/08:00am 25.2 26.2 21.7 81 2.3 ESE 19 28 10 15 1014.1 1013.9 0.0
28/07:30am 24.0 26.6 21.9 88 1.4 ESE 11 17 6 9 1013.9 1013.7 0.0
28/07:00am 24.0 25.6 21.5 86 1.7 ESE 15 20 8 11 1013.4 1013.2 0.0
28/06:30am 24.2 26.0 21.9 87 1.5 ESE 15 22 8 12 1013.1 1012.9 0.0
28/06:00am 24.2 26.7 21.7 86 1.7 ESE 11 17 6 9 1012.7 1012.5 0.0
28/05:30am 24.4 26.5 21.7 85 1.8 ESE 13 20 7 11 1012.4 1012.2 0.0
28/05:00am 24.5 26.7 21.8 85 1.8 ESE 13 19 7 10 1012.3 1012.1 0.0
28/04:30am 24.8 26.7 22.1 85 1.8 ESE 15 22 8 12 1012.2 1012.0 0.0
28/04:00am 25.0 26.9 22.1 84 1.9 ESE 15 20 8 11 1012.2 1012.0 0.0
28/03:30am 25.2 27.8 22.7 86 1.7 ESE 13 19 7 10 1012.2 1012.0 0.0
28/03:00am 25.4 28.5 23.5 89 1.3 SE 13 19 7 10 1012.3 1012.1 0.0
28/02:30am 26.4 27.9 23.1 82 2.2 ESE 20 28 11 15 1012.3 1012.1 0.0
28/02:00am 26.7 28.9 24.0 85 1.9 E 19 28 10 15 1012.6 1012.4 0.0
28/01:30am 26.8 28.9 24.1 85 1.9 E 20 26 11 14 1012.9 1012.7 0.0
28/01:00am 26.8 28.9 24.1 85 1.9 ENE 20 28 11 15 1013.1 1012.9 0.0
28/12:30am 26.9 29.6 24.2 85 1.9 ENE 17 24 9 13 1013.2 1013.0 0.0
28/12:00am 26.9 30.0 24.2 85 1.9 ENE 15 28 8 15 1013.4 1013.2 0.0
 
Date/Time
CST
Temp
°C
App
Temp
°C
Dew
Point
Rel
Hum
%
Delta-T
°C
Wind Press
QNH
hPa
Press
MSL
hPa
Rain
since 9 am
mm
Dir
 
Spd
km/h
Gust
km/h
Spd
kts
Gust
kts
27/11:30pm 26.9 30.1 24.4 86 1.7 ENE 15 19 8 10 1013.5 1013.3 0.0
27/11:00pm 27.0 30.2 24.3 85 1.9 ENE 15 22 8 12 1013.3 1013.1 0.0
27/10:30pm 27.1 29.7 24.0 83 2.1 ENE 17 24 9 13 1013.4 1013.2 0.0
27/10:00pm 27.1 30.2 24.2 84 2.0 ENE 15 22 8 12 1013.4 1013.2 0.0
27/09:30pm 27.2 30.1 23.9 82 2.3 ENE 15 22 8 12 1013.4 1013.2 0.0
27/09:00pm 27.3 30.1 23.7 81 2.5 ENE 15 24 8 13 1013.3 1013.1 0.0
27/08:30pm 27.3 30.4 23.5 80 2.6 ENE 13 20 7 11 1013.0 1012.8 0.0
27/08:00pm 27.3 30.9 23.7 81 2.5 NE 11 19 6 10 1012.9 1012.7 0.0
27/07:30pm 27.4 30.4 23.4 79 2.7 ENE 13 22 7 12 1012.6 1012.4 0.0
27/07:00pm 27.5 31.2 23.3 78 2.9 ENE 9 17 5 9 1012.2 1012.0 0.0
27/06:30pm 27.5 30.4 23.1 77 3.0 NE 13 20 7 11 1012.0 1011.8 0.0
27/06:00pm 27.8 30.8 22.7 74 3.5 NE 11 20 6 11 1011.8 1011.6 0.0
27/05:30pm 28.1 30.7 22.6 72 3.7 NE 13 22 7 12 1011.5 1011.3 0.0
27/05:00pm 28.3 29.7 21.8 68 4.4 NE 17 28 9 15 1011.3 1011.1 0.0
27/04:30pm 29.3 31.9 22.0 64 4.9 NE 11 20 6 11 1011.2 1011.0 0.0
27/04:00pm 29.4 31.1 21.6 63 5.2 ENE 15 20 8 11 1011.1 1010.9 0.0
27/03:30pm 30.0 31.8 21.9 62 5.5 ENE 15 20 8 11 1011.1 1010.9 0.0
27/03:00pm 29.7 31.3 21.4 61 5.6 ENE 15 26 8 14 1011.4 1011.2 0.0
27/02:30pm 29.6 30.4 21.3 61 5.6 ENE 19 30 10 16 1011.9 1011.7 0.0
27/02:00pm 29.4 30.2 21.4 62 5.4 NE 19 26 10 14 1012.4 1012.2 0.0
27/01:30pm 30.6 32.0 21.9 59 5.9 ENE 17 30 9 16 1013.0 1012.8 0.0
27/01:00pm 29.8 30.3 21.2 60 5.8 NE 20 28 11 15 1013.5 1013.3 0.0
27/12:30pm 29.5 30.0 21.2 61 5.5 ENE 20 32 11 17 1014.1 1013.9 0.0
27/12:00pm 30.1 29.9 20.6 56 6.3 ENE 22 30 12 16 1014.5 1014.3 0.0
27/11:30am 29.8 29.9 20.4 57 6.2 E 20 28 11 15 1014.6 1014.4 0.0
27/11:00am 29.6 29.9 20.7 58 5.9 E 20 30 11 16 1014.8 1014.6 0.0
27/10:30am 28.9 28.3 20.4 60 5.6 E 24 32 13 17 1014.9 1014.7 0.0
27/10:00am 29.0 28.9 20.7 61 5.5 E 22 32 12 17 1015.1 1014.9 0.0
27/09:30am 27.8 28.0 20.6 65 4.7 ESE 20 32 11 17 1015.1 1014.9 0.0
27/09:00am 26.8 27.2 20.6 69 4.1 ESE 19 28 10 15 1015.0 1014.8 -
27/08:30am 26.3 26.8 20.8 71 3.6 ESE 19 28 10 15 1014.7 1014.5 -
27/08:00am 25.6 26.4 21.3 77 2.8 ESE 19 28 10 15 1014.2 1014.0 -
27/07:30am 24.9 26.3 21.8 83 2.1 ESE 17 24 9 13 1014.0 1013.8 -
27/07:00am 24.7 25.4 21.6 83 2.1 E 20 28 11 15 1013.8 1013.6 -
27/06:30am 24.8 25.8 21.7 83 2.1 ESE 19 28 10 15 1013.6 1013.4 -
27/06:00am 25.0 25.7 21.5 81 2.3 ESE 20 28 11 15 1013.4 1013.2 -
27/05:30am 25.2 25.8 21.1 78 2.7 E 19 26 10 14 1013.1 1012.9 -
27/05:00am 25.3 25.9 21.0 77 2.8 ENE 19 26 10 14 1013.0 1012.8 -
27/04:30am 25.3 26.4 21.2 78 2.7 ESE 17 24 9 13 1013.1 1012.9 -
27/04:00am 25.6 26.4 21.3 77 2.8 ESE 19 24 10 13 1013.2 1013.0 -
27/03:30am 25.8 26.0 20.6 73 3.4 ESE 20 32 11 17 1013.4 1013.2 -
27/03:00am 26.3 26.4 20.4 70 3.9 ESE 20 32 11 17 1013.7 1013.5 0.0
27/02:30am 26.5 26.8 20.3 68 4.1 ESE 19 28 10 15 1014.2 1014.0 -
27/02:00am 26.4 27.2 20.7 71 3.7 ESE 17 26 9 14 1014.5 1014.3 -
27/01:30am 26.4 27.1 20.5 70 3.9 SE 17 22 9 12 1014.8 1014.6 -
27/01:00am 26.6 28.0 21.1 72 3.6 SE 15 20 8 11 1015.0 1014.8 -
27/12:30am 26.8 28.6 21.8 74 3.3 SE 15 22 8 12 1015.0 1014.8 -
27/12:00am 27.1 29.1 22.3 75 3.2 ESE 15 20 8 11 1015.1 1014.9 -
 
Date/Time
CST
Temp
°C
App
Temp
°C
Dew
Point
Rel
Hum
%
Delta-T
°C
Wind Press
QNH
hPa
Press
MSL
hPa
Rain
since 9 am
mm
Dir
 
Spd
km/h
Gust
km/h
Spd
kts
Gust
kts
26/11:30pm 27.3 30.4 23.5 80 2.6 ESE 13 17 7 9 1015.3 1015.1 -
26/11:00pm 27.2 31.3 24.5 85 1.9 E 11 17 6 9 1015.4 1015.2 -
26/10:30pm 27.3 30.9 24.4 84 2.0 E 13 19 7 10 1015.4 1015.2 -
26/10:00pm 27.3 30.8 24.2 83 2.1 E 13 20 7 11 1015.3 1015.1 -
26/09:30pm 27.3 31.2 24.2 83 2.1 E 11 15 6 8 1015.3 1015.1 -
26/09:00pm 27.2 31.6 24.5 85 1.9 E 9 15 5 8 1015.0 1014.8 0.0
26/08:30pm 27.3 31.8 24.6 85 1.9 E 9 13 5 7 1014.9 1014.7 -
26/08:00pm 27.3 31.4 24.6 85 1.9 E 11 15 6 8 1014.5 1014.3 -
26/07:30pm 27.4 31.5 24.5 84 2.0 E 11 15 6 8 1014.1 1013.9 -
26/07:00pm 27.4 31.3 24.3 83 2.1 E 11 17 6 9 1013.7 1013.5 -
26/06:30pm 27.5 31.2 23.9 81 2.5 E 11 17 6 9 1013.3 1013.1 -
26/06:00pm 27.7 31.0 23.9 80 2.6 E 13 19 7 10 1013.0 1012.8 -

Other Formats:

Comma delimited format used in spreadsheet applications
http://www.bom.gov.au/fwo/IDD60801/IDD60801.94139.axf

JavaScript Object Notation format (JSON) in row-major order
http://www.bom.gov.au/fwo/IDD60801/IDD60801.94139.json